createdAt,value
2018-06-04T00:00:24.169Z,0.00
2018-06-04T00:01:24.138Z,0.00
2018-06-04T00:02:24.128Z,0.00
2018-06-04T00:03:24.074Z,0.00
2018-06-04T00:04:24.030Z,0.00
2018-06-04T00:05:24.005Z,0.00
2018-06-04T00:06:23.973Z,0.00
2018-06-04T00:07:23.921Z,0.00
2018-06-04T00:08:23.906Z,0.00
2018-06-04T00:09:23.864Z,0.00
2018-06-04T00:10:23.831Z,0.00
2018-06-04T00:11:23.797Z,0.00
2018-06-04T00:12:23.759Z,0.00
2018-06-04T00:13:23.917Z,0.00
2018-06-04T00:14:23.686Z,0.00
2018-06-04T00:15:23.677Z,0.00
2018-06-04T00:16:23.620Z,0.00
2018-06-04T00:17:23.581Z,0.00
2018-06-04T00:18:23.551Z,0.00
2018-06-04T00:19:23.491Z,0.00
2018-06-04T00:20:23.483Z,0.00
2018-06-04T00:21:23.433Z,0.00
2018-06-04T00:22:23.408Z,0.00
2018-06-04T00:23:23.372Z,0.00
2018-06-04T00:24:23.318Z,0.00
2018-06-04T00:25:23.298Z,0.00
2018-06-04T00:26:23.257Z,0.00
2018-06-04T00:27:23.255Z,0.00
2018-06-04T00:28:23.207Z,0.00
2018-06-04T00:29:23.228Z,0.00
2018-06-04T00:30:23.117Z,0.00
2018-06-04T00:31:23.078Z,0.00
2018-06-04T00:32:23.094Z,0.00
2018-06-04T00:33:23.041Z,0.00
2018-06-04T00:34:22.988Z,0.00
2018-06-04T00:35:22.951Z,0.00
2018-06-04T00:36:23.397Z,0.00
2018-06-04T00:37:22.856Z,0.00
2018-06-04T00:38:22.857Z,0.00
2018-06-04T00:39:23.397Z,0.00
2018-06-04T00:40:22.794Z,0.00
2018-06-04T00:41:22.720Z,0.00
2018-06-04T00:42:22.708Z,0.00
2018-06-04T00:43:22.765Z,0.00
2018-06-04T00:44:22.614Z,0.00
2018-06-04T00:45:23.396Z,0.00
2018-06-04T00:46:22.589Z,0.00
2018-06-04T00:47:22.517Z,0.00
2018-06-04T00:48:22.480Z,0.00
2018-06-04T00:49:22.476Z,0.00
2018-06-04T00:50:22.427Z,0.00
2018-06-04T00:51:22.422Z,0.00
2018-06-04T00:52:22.379Z,0.00
2018-06-04T00:53:22.297Z,0.00
2018-06-04T00:54:22.275Z,0.00
2018-06-04T00:55:22.232Z,0.00
2018-06-04T00:56:22.203Z,0.00
2018-06-04T00:57:22.160Z,0.00
2018-06-04T00:58:22.121Z,0.00
2018-06-04T00:59:22.903Z,0.00
2018-06-04T01:00:22.048Z,0.00
2018-06-04T01:01:22.027Z,0.00
2018-06-04T01:02:21.997Z,0.00
2018-06-04T01:03:21.942Z,0.00
2018-06-04T01:04:21.942Z,0.00
2018-06-04T01:05:21.864Z,0.00
2018-06-04T01:06:21.826Z,0.00
2018-06-04T01:07:21.834Z,0.00
2018-06-04T01:08:21.768Z,0.00
2018-06-04T01:09:21.728Z,0.00
2018-06-04T01:10:21.737Z,0.00
2018-06-04T01:11:22.408Z,0.00
2018-06-04T01:12:21.618Z,0.00
2018-06-04T01:13:21.600Z,0.00
2018-06-04T01:14:21.570Z,0.00
2018-06-04T01:15:21.528Z,0.00
2018-06-04T01:16:21.476Z,0.00
2018-06-04T01:17:21.445Z,0.00
2018-06-04T01:18:21.406Z,0.00
2018-06-04T01:19:21.488Z,0.00
2018-06-04T01:20:21.383Z,0.00
2018-06-04T01:21:21.333Z,0.00
2018-06-04T01:22:21.337Z,0.00
2018-06-04T01:23:21.289Z,0.00
2018-06-04T01:24:21.264Z,0.00
2018-06-04T01:25:21.179Z,0.00
2018-06-04T01:26:21.149Z,0.00
2018-06-04T01:27:21.102Z,0.00
2018-06-04T01:28:21.057Z,0.00
2018-06-04T01:29:21.002Z,0.00
2018-06-04T01:30:20.976Z,0.00
2018-06-04T01:31:20.952Z,0.00
2018-06-04T01:32:20.924Z,0.00
2018-06-04T01:33:20.876Z,0.00
2018-06-04T01:34:20.863Z,0.00
2018-06-04T01:35:21.415Z,0.00
2018-06-04T01:36:20.754Z,0.00
2018-06-04T01:37:20.797Z,0.00
2018-06-04T01:38:20.718Z,0.00
2018-06-04T01:39:20.682Z,0.00
2018-06-04T01:40:20.653Z,0.00
2018-06-04T01:41:20.583Z,0.00
2018-06-04T01:42:21.410Z,0.00
2018-06-04T01:43:20.523Z,0.00
2018-06-04T01:44:20.489Z,0.00
2018-06-04T01:45:20.461Z,0.00
2018-06-04T01:46:20.447Z,0.00
2018-06-04T01:47:20.375Z,0.00
2018-06-04T01:48:20.362Z,0.00
2018-06-04T01:49:20.309Z,0.00
2018-06-04T01:50:20.269Z,0.00
2018-06-04T01:51:20.223Z,0.00
2018-06-04T01:52:20.204Z,0.00
2018-06-04T01:53:20.173Z,0.00
2018-06-04T01:54:20.111Z,0.00
2018-06-04T01:55:20.117Z,0.00
2018-06-04T01:56:20.074Z,0.00
2018-06-04T01:57:20.019Z,0.00
2018-06-04T01:58:19.981Z,0.00
2018-06-04T01:59:19.947Z,0.00
2018-06-04T02:00:19.931Z,0.00
2018-06-04T02:01:19.856Z,0.00
2018-06-04T02:02:19.846Z,0.00
2018-06-04T02:03:19.786Z,0.00
2018-06-04T02:04:19.798Z,0.00
2018-06-04T02:05:20.418Z,0.00
2018-06-04T02:06:19.708Z,0.00
2018-06-04T02:07:20.422Z,0.00
2018-06-04T02:08:19.623Z,0.00
2018-06-04T02:09:19.600Z,0.00
2018-06-04T02:10:19.546Z,0.00
2018-06-04T02:11:19.530Z,0.00
2018-06-04T02:12:19.466Z,0.00
2018-06-04T02:13:19.467Z,0.00
2018-06-04T02:14:19.432Z,0.00
2018-06-04T02:15:19.393Z,0.00
2018-06-04T02:16:19.332Z,0.00
2018-06-04T02:17:19.304Z,0.00
2018-06-04T02:18:19.281Z,0.00
2018-06-04T02:19:19.268Z,0.00
2018-06-04T02:20:19.923Z,0.00
2018-06-04T02:21:19.193Z,0.00
2018-06-04T02:22:19.109Z,0.00
2018-06-04T02:23:19.088Z,0.00
2018-06-04T02:24:19.084Z,0.00
2018-06-04T02:25:19.021Z,0.00
2018-06-04T02:26:19.013Z,0.00
2018-06-04T02:27:18.966Z,0.00
2018-06-04T02:28:18.891Z,0.00
2018-06-04T02:29:18.851Z,0.00
2018-06-04T02:30:18.858Z,0.00
2018-06-04T02:31:18.809Z,0.00
2018-06-04T02:32:18.752Z,0.00
2018-06-04T02:33:18.713Z,0.00
2018-06-04T02:34:18.715Z,0.00
2018-06-04T02:35:18.640Z,0.00
2018-06-04T02:36:18.629Z,0.00
2018-06-04T02:37:18.592Z,0.00
2018-06-04T02:38:18.556Z,0.00
2018-06-04T02:39:18.495Z,0.00
2018-06-04T02:40:18.542Z,0.00
2018-06-04T02:41:18.434Z,0.00
2018-06-04T02:42:18.434Z,0.00
2018-06-04T02:43:18.469Z,0.00
2018-06-04T02:44:18.330Z,0.00
2018-06-04T02:45:18.319Z,0.00
2018-06-04T02:46:18.255Z,0.00
2018-06-04T02:47:18.246Z,0.00
2018-06-04T02:48:18.202Z,0.00
2018-06-04T02:49:18.155Z,0.00
2018-06-04T02:50:18.164Z,0.00
2018-06-04T02:51:18.087Z,0.00
2018-06-04T02:52:18.039Z,0.00
2018-06-04T02:53:18.028Z,0.00
2018-06-04T02:54:17.984Z,0.00
2018-06-04T02:55:17.917Z,0.00
2018-06-04T02:56:17.929Z,0.00
2018-06-04T02:57:17.897Z,0.00
2018-06-04T02:58:17.829Z,0.00
2018-06-04T02:59:17.807Z,0.00
2018-06-04T03:00:18.444Z,0.00
2018-06-04T03:01:17.799Z,0.00
2018-06-04T03:02:18.441Z,0.00
2018-06-04T03:03:17.638Z,0.00
2018-06-04T03:04:17.604Z,0.00
2018-06-04T03:05:17.565Z,0.00
2018-06-04T03:06:17.545Z,0.00
2018-06-04T03:07:17.515Z,0.00
2018-06-04T03:08:17.478Z,0.00
2018-06-04T03:09:17.422Z,0.00
2018-06-04T03:10:17.417Z,0.00
2018-06-04T03:11:17.361Z,0.00
2018-06-04T03:12:17.315Z,0.00
2018-06-04T03:13:17.280Z,0.00
2018-06-04T03:14:17.259Z,0.00
2018-06-04T03:15:17.210Z,0.00
2018-06-04T03:16:17.190Z,0.00
2018-06-04T03:17:17.209Z,0.00
2018-06-04T03:18:17.115Z,0.00
2018-06-04T03:19:17.091Z,0.00
2018-06-04T03:20:17.042Z,0.00
2018-06-04T03:21:17.063Z,0.00
2018-06-04T03:22:16.958Z,0.00
2018-06-04T03:23:16.923Z,0.00
2018-06-04T03:24:16.892Z,0.00
2018-06-04T03:25:16.864Z,0.00
2018-06-04T03:26:16.822Z,0.00
2018-06-04T03:27:17.440Z,0.00
2018-06-04T03:28:16.840Z,0.00
2018-06-04T03:29:16.745Z,0.00
2018-06-04T03:30:16.698Z,0.00
2018-06-04T03:31:16.647Z,0.00
2018-06-04T03:32:16.621Z,0.00
2018-06-04T03:33:16.641Z,0.00
2018-06-04T03:34:16.552Z,0.00
2018-06-04T03:35:16.504Z,0.00
2018-06-04T03:36:16.480Z,0.00
2018-06-04T03:37:16.455Z,0.00
2018-06-04T03:38:16.447Z,0.00
2018-06-04T03:39:16.374Z,0.00
2018-06-04T03:40:16.332Z,0.00
2018-06-04T03:41:16.310Z,0.00
2018-06-04T03:42:16.262Z,0.00
2018-06-04T03:43:16.211Z,0.00
2018-06-04T03:44:18.478Z,0.00
2018-06-04T03:45:16.192Z,0.00
2018-06-04T03:47:09.605Z,0.00
2018-06-04T03:48:09.209Z,0.00
2018-06-04T03:50:02.494Z,0.00
2018-06-04T03:51:02.313Z,0.00
2018-06-04T03:52:55.670Z,0.00
2018-06-04T03:53:55.308Z,1.62
2018-06-04T03:55:48.425Z,2.58
2018-06-04T03:56:48.436Z,3.63
2018-06-04T03:58:41.609Z,5.44
2018-06-04T03:59:41.356Z,5.83
2018-06-04T04:01:34.693Z,7.07
2018-06-04T04:02:35.269Z,8.50
2018-06-04T04:03:34.338Z,9.46
2018-06-04T04:04:34.375Z,13.67
2018-06-04T04:05:34.306Z,22.47
2018-06-04T04:06:34.232Z,32.25
2018-06-04T04:07:34.228Z,38.09
2018-06-04T04:08:34.189Z,47.87
2018-06-04T04:09:34.142Z,58.81
2018-06-04T04:10:34.094Z,68.59
2018-06-04T04:11:34.267Z,79.07
2018-06-04T04:12:34.039Z,93.93
2018-06-04T04:13:33.987Z,99.99
2018-06-04T04:14:33.948Z,99.99
2018-06-04T04:15:33.935Z,99.99
2018-06-04T04:16:33.882Z,99.99
2018-06-04T04:17:33.866Z,99.99
2018-06-04T04:18:33.820Z,99.99
2018-06-04T04:19:33.818Z,99.99
2018-06-04T04:20:33.788Z,99.99
2018-06-04T04:21:33.725Z,99.99
2018-06-04T04:22:33.681Z,99.99
2018-06-04T04:23:33.674Z,99.99
2018-06-04T04:24:33.649Z,99.99
2018-06-04T04:25:33.615Z,99.99
2018-06-04T04:26:33.603Z,99.99
2018-06-04T04:27:33.547Z,99.99
2018-06-04T04:28:33.501Z,99.99
2018-06-04T04:29:33.461Z,99.99
2018-06-04T04:30:33.445Z,99.99
2018-06-04T04:31:33.386Z,99.99
2018-06-04T04:32:33.387Z,99.99
2018-06-04T04:33:33.366Z,99.99
2018-06-04T04:34:33.311Z,99.99
2018-06-04T04:35:33.309Z,99.99
2018-06-04T04:36:33.234Z,99.48
2018-06-04T04:37:33.266Z,97.47
2018-06-04T04:38:33.180Z,90.86
2018-06-04T04:39:33.185Z,93.49
2018-06-04T04:40:33.202Z,85.35
2018-06-04T04:41:33.097Z,81.62
2018-06-04T04:42:33.102Z,88.32
2018-06-04T04:43:33.073Z,82.19
2018-06-04T04:44:32.997Z,74.15
2018-06-04T04:45:32.965Z,74.62
2018-06-04T04:46:32.909Z,74.15
2018-06-04T04:47:32.918Z,71.94
2018-06-04T04:48:32.888Z,71.46
2018-06-04T04:49:32.816Z,70.89
2018-06-04T04:50:32.799Z,70.50
2018-06-04T04:51:32.759Z,72.07
2018-06-04T04:52:32.720Z,78.96
2018-06-04T04:53:32.737Z,93.05
2018-06-04T04:54:32.654Z,99.99
2018-06-04T04:55:32.653Z,99.99
2018-06-04T04:56:32.633Z,99.99
2018-06-04T04:57:32.598Z,99.99
2018-06-04T04:58:32.565Z,99.99
2018-06-04T04:59:32.565Z,99.99
2018-06-04T05:00:32.535Z,99.99
2018-06-04T05:01:32.469Z,99.99
2018-06-04T05:02:32.439Z,99.99
2018-06-04T05:03:32.389Z,99.99
2018-06-04T05:04:32.547Z,99.99
2018-06-04T05:05:32.338Z,99.99
2018-06-04T05:06:32.351Z,99.99
2018-06-04T05:07:32.265Z,99.99
2018-06-04T05:08:32.243Z,92.58
2018-06-04T05:09:32.200Z,83.48
2018-06-04T05:10:32.175Z,80.51
2018-06-04T05:11:32.139Z,77.86
2018-06-04T05:12:32.107Z,81.70
2018-06-04T05:13:32.071Z,83.71
2018-06-04T05:14:32.649Z,82.04
2018-06-04T05:15:32.027Z,79.74
2018-06-04T05:16:32.024Z,75.37
2018-06-04T05:17:31.978Z,74.22
2018-06-04T05:18:31.952Z,90.32
2018-06-04T05:19:31.936Z,99.99
2018-06-04T05:20:31.876Z,99.99
2018-06-04T05:21:31.828Z,99.99
2018-06-04T05:22:31.825Z,99.99
2018-06-04T05:23:31.764Z,99.99
2018-06-04T05:24:31.773Z,99.99
2018-06-04T05:25:31.704Z,99.99
2018-06-04T05:26:31.700Z,99.99
2018-06-04T05:27:31.638Z,99.99
2018-06-04T05:28:31.623Z,99.99
2018-06-04T05:29:31.603Z,99.99
2018-06-04T05:30:31.560Z,99.99
2018-06-04T05:31:31.573Z,99.99
2018-06-04T05:32:31.507Z,99.99
2018-06-04T05:33:31.492Z,99.99
2018-06-04T05:34:31.441Z,99.99
2018-06-04T05:35:31.402Z,99.99
2018-06-04T05:36:31.409Z,99.99
2018-06-04T05:37:31.371Z,98.86
2018-06-04T05:38:31.322Z,96.47
2018-06-04T05:39:31.296Z,93.59
2018-06-04T05:40:31.274Z,92.43
2018-06-04T05:41:31.275Z,93.20
2018-06-04T05:42:31.227Z,97.28
2018-06-04T05:43:31.184Z,99.99
2018-06-04T05:44:31.169Z,99.25
2018-06-04T05:45:31.118Z,99.99
2018-06-04T05:46:31.116Z,99.99
2018-06-04T05:47:31.080Z,99.99
2018-06-04T05:48:31.048Z,99.99
2018-06-04T05:49:31.042Z,99.99
2018-06-04T05:50:31.019Z,99.99
2018-06-04T05:51:30.957Z,99.99
2018-06-04T05:52:30.926Z,99.99
2018-06-04T05:53:30.921Z,99.99
2018-06-04T05:54:30.853Z,99.99
2018-06-04T05:55:30.824Z,99.99
2018-06-04T05:56:30.819Z,99.99
2018-06-04T05:57:30.761Z,99.99
2018-06-04T05:58:30.745Z,99.99
2018-06-04T05:59:30.705Z,99.99
2018-06-04T06:00:30.678Z,99.99
2018-06-04T06:01:30.702Z,99.99
2018-06-04T06:02:30.626Z,99.99
2018-06-04T06:03:30.594Z,99.99
2018-06-04T06:04:30.573Z,99.99
2018-06-04T06:05:30.557Z,99.99
2018-06-04T06:06:30.513Z,99.99
2018-06-04T06:07:30.470Z,99.99
2018-06-04T06:08:30.442Z,99.99
2018-06-04T06:09:30.439Z,99.99
2018-06-04T06:10:30.410Z,99.99
2018-06-04T06:11:30.385Z,99.99
2018-06-04T06:12:30.331Z,99.99
2018-06-04T06:13:30.295Z,99.99
2018-06-04T06:14:30.336Z,99.99
2018-06-04T06:15:30.247Z,99.99
2018-06-04T06:16:30.224Z,99.99
2018-06-04T06:17:30.197Z,99.99
2018-06-04T06:18:30.156Z,99.99
2018-06-04T06:19:30.170Z,99.99
2018-06-04T06:20:30.121Z,99.99
2018-06-04T06:21:30.189Z,99.99
2018-06-04T06:22:30.051Z,99.99
2018-06-04T06:23:30.056Z,99.99
2018-06-04T06:24:29.993Z,99.99
2018-06-04T06:25:30.021Z,99.99
2018-06-04T06:26:29.950Z,99.99
2018-06-04T06:27:29.895Z,99.99
2018-06-04T06:28:30.685Z,99.99
2018-06-04T06:29:29.860Z,99.99
2018-06-04T06:30:30.683Z,99.99
2018-06-04T06:31:29.781Z,99.99
2018-06-04T06:32:29.802Z,99.99
2018-06-04T06:33:29.729Z,99.99
2018-06-04T06:34:29.714Z,99.99
2018-06-04T06:35:29.719Z,99.99
2018-06-04T06:36:29.645Z,99.99
2018-06-04T06:37:29.611Z,99.99
2018-06-04T06:38:29.600Z,99.99
2018-06-04T06:39:29.556Z,99.99
2018-06-04T06:40:29.558Z,99.99
2018-06-04T06:41:29.534Z,99.99
2018-06-04T06:42:29.545Z,99.99
2018-06-04T06:43:29.479Z,99.99
2018-06-04T06:44:29.428Z,99.99
2018-06-04T06:45:29.453Z,99.99
2018-06-04T06:46:29.365Z,99.99
2018-06-04T06:47:29.363Z,99.99
2018-06-04T06:48:29.309Z,99.99
2018-06-04T06:49:29.301Z,99.99
2018-06-04T06:50:29.246Z,99.99
2018-06-04T06:51:29.237Z,99.99
2018-06-04T06:52:29.193Z,99.99
2018-06-04T06:53:29.188Z,99.99
2018-06-04T06:54:29.159Z,99.99
2018-06-04T06:55:29.261Z,99.99
2018-06-04T06:56:29.112Z,94.37
2018-06-04T06:57:29.063Z,90.58
2018-06-04T06:58:29.027Z,86.44
2018-06-04T06:59:29.032Z,81.55
2018-06-04T07:00:28.971Z,78.61
2018-06-04T07:01:28.958Z,76.03
2018-06-04T07:02:28.916Z,75.78
2018-06-04T07:03:28.916Z,76.07
2018-06-04T07:04:28.873Z,77.57
2018-06-04T07:05:28.853Z,83.84
2018-06-04T07:06:28.841Z,81.20
2018-06-04T07:07:28.821Z,79.72
2018-06-04T07:08:28.764Z,82.40
2018-06-04T07:09:28.760Z,78.27
2018-06-04T07:10:28.796Z,75.78
2018-06-04T07:11:28.709Z,70.46
2018-06-04T07:12:28.684Z,70.30
2018-06-04T07:13:28.653Z,72.54
2018-06-04T07:14:28.643Z,73.00
2018-06-04T07:15:28.601Z,71.28
2018-06-04T07:16:28.617Z,70.92
2018-06-04T07:17:28.590Z,68.90
2018-06-04T07:18:28.578Z,66.53
2018-06-04T07:19:28.595Z,68.90
2018-06-04T07:20:28.519Z,72.53
2018-06-04T07:21:28.507Z,71.01
2018-06-04T07:22:28.468Z,71.37
2018-06-04T07:23:28.427Z,70.43
2018-06-04T07:24:28.400Z,70.98
2018-06-04T07:25:28.389Z,70.27
2018-06-04T07:26:28.369Z,66.89
2018-06-04T07:27:28.353Z,69.07
2018-06-04T07:28:28.321Z,66.47
2018-06-04T07:29:28.315Z,67.90
2018-06-04T07:30:28.275Z,66.50
2018-06-04T07:31:28.784Z,65.78
2018-06-04T07:32:28.254Z,66.50
2018-06-04T07:33:28.222Z,67.63
2018-06-04T07:34:28.199Z,74.34
2018-06-04T07:35:28.176Z,75.45
2018-06-04T07:36:28.162Z,73.67
2018-06-04T07:37:28.186Z,73.18
2018-06-04T07:38:28.216Z,73.54
2018-06-04T07:39:28.140Z,73.51
2018-06-04T07:40:28.097Z,72.02
2018-06-04T07:41:28.075Z,71.21
2018-06-04T07:42:28.053Z,70.43
2018-06-04T07:43:28.040Z,71.60
2018-06-04T07:44:28.125Z,71.20
2018-06-04T07:45:28.090Z,78.92
2018-06-04T07:46:27.995Z,74.63
2018-06-04T07:47:27.968Z,72.56
2018-06-04T07:48:27.969Z,73.18
2018-06-04T07:49:27.946Z,71.01
2018-06-04T07:50:27.909Z,69.68
2018-06-04T07:51:27.910Z,69.75
2018-06-04T07:52:27.874Z,70.66
2018-06-04T07:53:27.929Z,72.70
2018-06-04T07:54:27.835Z,70.95
2018-06-04T07:55:27.881Z,68.68
2018-06-04T07:56:27.968Z,68.19
2018-06-04T07:57:27.779Z,67.74
2018-06-04T07:58:27.759Z,69.39
2018-06-04T07:59:27.735Z,73.40
2018-06-04T08:00:27.739Z,70.88
2018-06-04T08:01:27.708Z,70.17
2018-06-04T08:02:27.707Z,70.59
2018-06-04T08:03:27.682Z,79.68
2018-06-04T08:04:27.715Z,79.71
2018-06-04T08:05:27.622Z,79.91
2018-06-04T08:06:27.690Z,79.72
2018-06-04T08:07:27.608Z,80.29
2018-06-04T08:08:27.595Z,77.29
2018-06-04T08:09:27.568Z,74.99
2018-06-04T08:10:27.538Z,71.34
2018-06-04T08:11:27.548Z,71.15
2018-06-04T08:12:27.508Z,70.85
2018-06-04T08:13:27.530Z,70.29
2018-06-04T08:14:27.495Z,74.40
2018-06-04T08:15:27.460Z,80.87
2018-06-04T08:16:27.445Z,79.86
2018-06-04T08:17:27.443Z,78.87
2018-06-04T08:18:27.424Z,81.06
2018-06-04T08:19:27.416Z,77.20
2018-06-04T08:20:27.366Z,76.64
2018-06-04T08:21:27.366Z,76.01
2018-06-04T08:22:27.350Z,73.94
2018-06-04T08:23:27.296Z,70.26
2018-06-04T08:24:27.291Z,75.13
2018-06-04T08:25:27.257Z,72.21
2018-06-04T08:26:27.259Z,76.34
2018-06-04T08:27:27.246Z,72.06
2018-06-04T08:28:27.207Z,69.07
2018-06-04T08:29:27.200Z,71.75
2018-06-04T08:30:27.188Z,76.92
2018-06-04T08:31:27.158Z,78.44
2018-06-04T08:32:27.161Z,81.12
2018-06-04T08:33:27.106Z,82.88
2018-06-04T08:34:27.117Z,85.21
2018-06-04T08:35:27.088Z,82.82
2018-06-04T08:36:27.067Z,81.26
2018-06-04T08:37:27.064Z,77.86
2018-06-04T08:38:27.087Z,80.01
2018-06-04T08:39:27.027Z,81.47
2018-06-04T08:40:26.999Z,82.94
2018-06-04T08:41:26.984Z,85.13
2018-06-04T08:42:26.967Z,88.85
2018-06-04T08:43:26.943Z,91.17
2018-06-04T08:44:26.929Z,84.45
2018-06-04T08:45:26.885Z,84.49
2018-06-04T08:46:26.878Z,86.13
2018-06-04T08:47:26.861Z,86.38
2018-06-04T08:48:26.827Z,84.00
2018-06-04T08:49:26.803Z,84.67
2018-06-04T08:50:26.783Z,78.77
2018-06-04T08:51:26.763Z,74.34
2018-06-04T08:52:26.774Z,71.21
2018-06-04T08:53:26.728Z,67.80
2018-06-04T08:54:26.732Z,72.31
2018-06-04T08:55:26.684Z,72.63
2018-06-04T08:56:26.681Z,80.21
2018-06-04T08:57:26.648Z,83.00
2018-06-04T08:58:26.617Z,87.60
2018-06-04T08:59:26.614Z,92.58
2018-06-04T09:00:26.582Z,84.45
2018-06-04T09:01:26.584Z,83.42
2018-06-04T09:02:26.535Z,85.02
2018-06-04T09:03:26.558Z,85.03
2018-06-04T09:04:26.500Z,89.05
2018-06-04T09:05:26.512Z,91.08
2018-06-04T09:06:26.485Z,87.41
2018-06-04T09:07:26.446Z,84.99
2018-06-04T09:08:26.426Z,89.34
2018-06-04T09:09:26.391Z,93.85
2018-06-04T09:10:26.397Z,92.83
2018-06-04T09:11:26.363Z,92.30
2018-06-04T09:12:26.340Z,93.70
2018-06-04T09:13:26.309Z,83.25
2018-06-04T09:14:26.283Z,85.08
2018-06-04T09:15:26.272Z,82.37
2018-06-04T09:16:26.253Z,80.87
2018-06-04T09:17:26.210Z,80.57
2018-06-04T09:18:26.208Z,84.74
2018-06-04T09:19:26.180Z,87.30
2018-06-04T09:20:26.153Z,83.03
2018-06-04T09:21:26.135Z,79.30
2018-06-04T09:22:26.120Z,80.29
2018-06-04T09:23:26.103Z,74.06
2018-06-04T09:24:26.073Z,70.40
2018-06-04T09:25:26.053Z,72.01
2018-06-04T09:26:26.030Z,72.70
2018-06-04T09:27:25.994Z,71.07
2018-06-04T09:28:26.015Z,71.42
2018-06-04T09:29:25.949Z,72.64
2018-06-04T09:30:25.936Z,74.70
2018-06-04T09:31:25.927Z,80.07
2018-06-04T09:32:25.871Z,77.06
2018-06-04T09:33:25.881Z,82.69
2018-06-04T09:34:25.839Z,75.77
2018-06-04T09:35:25.809Z,80.09
2018-06-04T09:36:25.815Z,83.77
2018-06-04T09:37:25.776Z,82.60
2018-06-04T09:38:25.747Z,85.03
2018-06-04T09:39:25.748Z,87.26
2018-06-04T09:40:25.699Z,83.85
2018-06-04T09:41:25.677Z,73.46
2018-06-04T09:42:25.663Z,73.51
2018-06-04T09:43:25.656Z,67.54
2018-06-04T09:44:25.626Z,64.65
2018-06-04T09:45:25.593Z,63.44
2018-06-04T09:46:25.564Z,63.96
2018-06-04T09:47:25.606Z,60.85
2018-06-04T09:48:25.548Z,64.65
2018-06-04T09:49:25.521Z,65.49
2018-06-04T09:50:25.488Z,63.73
2018-06-04T09:51:25.476Z,66.21
2018-06-04T09:52:25.467Z,63.38
2018-06-04T09:53:25.429Z,64.65
2018-06-04T09:54:25.447Z,61.74
2018-06-04T09:55:25.420Z,60.24
2018-06-04T09:56:25.342Z,59.03
2018-06-04T09:57:25.352Z,57.88
2018-06-04T09:58:25.336Z,57.78
2018-06-04T09:59:25.324Z,56.31
2018-06-04T10:00:25.271Z,56.81
2018-06-04T10:01:25.322Z,56.61
2018-06-04T10:02:25.253Z,54.75
2018-06-04T10:03:25.215Z,54.16
2018-06-04T10:04:25.223Z,55.43
2018-06-04T10:05:25.171Z,57.00
2018-06-04T10:06:25.164Z,58.97
2018-06-04T10:07:25.167Z,62.12
2018-06-04T10:08:25.203Z,60.32
2018-06-04T10:09:25.133Z,62.35
2018-06-04T10:10:25.104Z,60.85
2018-06-04T10:11:25.081Z,63.42
2018-06-04T10:12:25.042Z,62.32
2018-06-04T10:13:25.037Z,64.45
2018-06-04T10:14:25.001Z,60.82
2018-06-04T10:15:25.004Z,63.49
2018-06-04T10:16:24.972Z,61.80
2018-06-04T10:17:24.949Z,63.20
2018-06-04T10:18:24.932Z,66.37
2018-06-04T10:19:24.924Z,70.36
2018-06-04T10:20:24.914Z,68.99
2018-06-04T10:21:24.901Z,67.44
2018-06-04T10:22:24.894Z,68.70
2018-06-04T10:23:24.898Z,67.50
2018-06-04T10:24:24.911Z,70.67
2018-06-04T10:25:24.894Z,70.51
2018-06-04T10:26:25.282Z,68.38
2018-06-04T10:27:24.776Z,65.07
2018-06-04T10:28:24.757Z,60.23
2018-06-04T10:29:24.758Z,62.05
2018-06-04T10:30:24.719Z,62.38
2018-06-04T10:31:24.697Z,60.23
2018-06-04T10:32:24.692Z,55.86
2018-06-04T10:33:24.691Z,55.62
2018-06-04T10:34:24.633Z,57.59
2018-06-04T10:35:24.629Z,62.41
2018-06-04T10:36:24.581Z,60.20
2018-06-04T10:37:24.574Z,62.96
2018-06-04T10:38:24.546Z,63.68
2018-06-04T10:39:24.519Z,67.24
2018-06-04T10:40:24.549Z,67.70
2018-06-04T10:41:24.490Z,60.97
2018-06-04T10:42:24.490Z,66.99
2018-06-04T10:43:24.464Z,66.72
2018-06-04T10:44:24.445Z,64.11
2018-06-04T10:45:24.418Z,61.44
2018-06-04T10:46:24.389Z,61.80
2018-06-04T10:47:24.392Z,62.71
2018-06-04T10:48:24.361Z,67.73
2018-06-04T10:49:24.330Z,67.63
2018-06-04T10:50:24.321Z,70.09
2018-06-04T10:51:24.286Z,70.77
2018-06-04T10:52:24.267Z,67.44
2018-06-04T10:53:24.257Z,71.70
2018-06-04T10:54:24.261Z,70.00
2018-06-04T10:55:24.239Z,70.48
2018-06-04T10:56:24.209Z,68.77
2018-06-04T10:57:24.187Z,67.76
2018-06-04T10:58:24.158Z,65.59
2018-06-04T10:59:24.116Z,64.78
2018-06-04T11:00:24.120Z,58.31
2018-06-04T11:01:24.076Z,55.44
2018-06-04T11:02:24.080Z,58.20
2018-06-04T11:03:24.056Z,58.22
2018-06-04T11:04:24.046Z,56.10
2018-06-04T11:05:24.086Z,56.02
2018-06-04T11:06:24.018Z,55.51
2018-06-04T11:07:23.963Z,52.93
2018-06-04T11:08:23.956Z,55.49
2018-06-04T11:09:23.935Z,56.37
2018-06-04T11:10:23.887Z,54.88
2018-06-04T11:11:23.885Z,54.13
2018-06-04T11:12:23.885Z,55.37
2018-06-04T11:13:23.849Z,52.17
2018-06-04T11:14:23.823Z,51.51
2018-06-04T11:15:23.821Z,55.03
2018-06-04T11:16:23.806Z,51.05
2018-06-04T11:17:23.796Z,50.39
2018-06-04T11:18:23.747Z,51.56
2018-06-04T11:19:23.746Z,52.56
2018-06-04T11:20:23.739Z,51.49
2018-06-04T11:21:23.713Z,50.88
2018-06-04T11:22:23.662Z,53.60
2018-06-04T11:23:23.674Z,56.72
2018-06-04T11:24:23.731Z,58.42
2018-06-04T11:25:23.739Z,61.54
2018-06-04T11:26:23.654Z,61.51
2018-06-04T11:27:23.587Z,62.23
2018-06-04T11:28:23.556Z,65.98
2018-06-04T11:29:23.609Z,65.37
2018-06-04T11:30:23.562Z,67.31
2018-06-04T11:31:23.485Z,67.28
2018-06-04T11:32:23.492Z,65.14
2018-06-04T11:33:23.457Z,66.30
2018-06-04T11:34:23.437Z,65.72
2018-06-04T11:35:23.429Z,65.33
2018-06-04T11:36:23.419Z,66.11
2018-06-04T11:37:23.388Z,67.47
2018-06-04T11:38:23.358Z,71.58
2018-06-04T11:39:23.389Z,72.03
2018-06-04T11:40:23.323Z,70.71
2018-06-04T11:41:23.344Z,70.48
2018-06-04T11:42:23.277Z,70.61
2018-06-04T11:43:23.262Z,67.11
2018-06-04T11:44:23.243Z,75.08
2018-06-04T11:45:23.228Z,69.93
2018-06-04T11:46:23.204Z,70.61
2018-06-04T11:47:23.164Z,76.54
2018-06-04T11:48:23.187Z,73.24
2018-06-04T11:49:23.174Z,69.32
2018-06-04T11:50:23.198Z,62.57
2018-06-04T11:51:23.121Z,59.91
2018-06-04T11:52:23.060Z,63.18
2018-06-04T11:53:23.040Z,57.43
2018-06-04T11:54:23.995Z,58.53
2018-06-04T11:55:22.999Z,56.54
2018-06-04T11:56:24.019Z,56.15
2018-06-04T11:57:22.976Z,53.78
2018-06-04T11:58:23.004Z,56.12
2018-06-04T11:59:22.923Z,55.63
2018-06-04T12:00:22.904Z,55.41
2018-06-04T12:01:22.884Z,54.69
2018-06-04T12:02:22.876Z,56.86
2018-06-04T12:03:22.817Z,53.19
2018-06-04T12:04:22.828Z,52.34
2018-06-04T12:05:22.825Z,55.82
2018-06-04T12:06:22.815Z,56.20
2018-06-04T12:07:22.743Z,61.51
2018-06-04T12:08:22.736Z,64.59
2018-06-04T12:09:22.709Z,63.04
2018-06-04T12:10:22.691Z,62.78
2018-06-04T12:11:22.675Z,63.26
2018-06-04T12:12:22.643Z,65.30
2018-06-04T12:13:22.636Z,67.14
2018-06-04T12:14:22.595Z,67.73
2018-06-04T12:15:22.593Z,69.57
2018-06-04T12:16:22.561Z,64.53
2018-06-04T12:17:22.559Z,68.70
2018-06-04T12:18:22.532Z,69.48
2018-06-04T12:19:22.504Z,71.96
2018-06-04T12:20:22.501Z,72.97
2018-06-04T12:21:22.473Z,70.97
2018-06-04T12:22:22.451Z,76.51
2018-06-04T12:23:22.447Z,66.27
2018-06-04T12:24:22.387Z,62.90
2018-06-04T12:25:22.399Z,62.08
2018-06-04T12:26:22.380Z,59.12
2018-06-04T12:27:22.326Z,59.64
2018-06-04T12:28:22.317Z,58.59
2018-06-04T12:29:22.314Z,57.10
2018-06-04T12:30:22.261Z,56.10
2018-06-04T12:31:22.276Z,61.23
2018-06-04T12:32:22.239Z,56.38
2018-06-04T12:33:22.238Z,56.32
2018-06-04T12:34:22.213Z,56.89
2018-06-04T12:35:22.171Z,55.13
2018-06-04T12:36:22.160Z,55.03
2018-06-04T12:37:22.128Z,55.35
2018-06-04T12:38:22.130Z,55.37
2018-06-04T12:39:22.100Z,56.20
2018-06-04T12:40:22.088Z,56.62
2018-06-04T12:41:22.060Z,53.76
2018-06-04T12:42:22.014Z,52.66
2018-06-04T12:43:22.013Z,54.35
2018-06-04T12:44:22.033Z,52.56
2018-06-04T12:45:21.982Z,48.55
2018-06-04T12:46:22.014Z,53.56
2018-06-04T12:47:21.931Z,52.27
2018-06-04T12:48:21.930Z,55.32
2018-06-04T12:49:21.889Z,58.56
2018-06-04T12:50:21.873Z,64.39
2018-06-04T12:51:21.873Z,63.00
2018-06-04T12:52:21.857Z,64.85
2018-06-04T12:53:21.826Z,62.68
2018-06-04T12:54:21.811Z,64.14
2018-06-04T12:55:21.792Z,65.17
2018-06-04T12:56:21.749Z,63.17
2018-06-04T12:57:21.756Z,64.26
2018-06-04T12:58:21.732Z,64.95
2018-06-04T12:59:21.706Z,66.79
2018-06-04T13:00:21.679Z,64.95
2018-06-04T13:01:21.658Z,62.98
2018-06-04T13:02:21.639Z,66.02
2018-06-04T13:03:21.620Z,67.18
2018-06-04T13:04:21.611Z,64.82
2018-06-04T13:05:21.584Z,65.20